createdAt,value
2023-05-18T00:00:33.151Z,883.00
2023-05-18T00:01:33.165Z,884.00
2023-05-18T00:02:33.263Z,886.00
2023-05-18T00:03:33.269Z,887.00
2023-05-18T00:04:33.233Z,893.00
2023-05-18T00:05:33.210Z,894.00
2023-05-18T00:06:33.221Z,895.00
2023-05-18T00:07:33.236Z,886.00
2023-05-18T00:08:33.251Z,873.00
2023-05-18T00:09:33.293Z,874.00
2023-05-18T00:10:33.373Z,886.00
2023-05-18T00:11:33.346Z,871.00
2023-05-18T00:12:33.356Z,887.00
2023-05-18T00:13:33.379Z,872.00
2023-05-18T00:14:33.398Z,879.00
2023-05-18T00:15:33.414Z,881.00
2023-05-18T00:16:33.535Z,878.00
2023-05-18T00:17:33.472Z,876.00
2023-05-18T00:18:33.494Z,875.00
2023-05-18T00:19:33.504Z,876.00
2023-05-18T00:20:33.519Z,872.00
2023-05-18T00:21:33.558Z,873.00
2023-05-18T00:22:33.566Z,876.00
2023-05-18T00:23:33.606Z,875.00
2023-05-18T00:25:33.663Z,882.00
2023-05-18T00:26:33.678Z,870.00
2023-05-18T00:27:33.695Z,866.00
2023-05-18T00:28:33.708Z,871.00
2023-05-18T00:29:33.734Z,862.00
2023-05-18T00:30:33.737Z,874.00
2023-05-18T00:31:33.785Z,867.00
2023-05-18T00:32:33.788Z,861.00
2023-05-18T00:33:33.778Z,859.00
2023-05-18T00:34:33.788Z,870.00
2023-05-18T00:35:33.804Z,868.00
2023-05-18T00:36:33.852Z,867.00
2023-05-18T00:37:33.847Z,868.00
2023-05-18T00:38:33.881Z,869.00
2023-05-18T00:39:33.883Z,872.00
2023-05-18T00:40:33.902Z,886.00
2023-05-18T00:41:33.927Z,862.00
2023-05-18T00:42:33.963Z,882.00
2023-05-18T00:43:34.009Z,875.00
2023-05-18T00:44:34.053Z,872.00
2023-05-18T00:45:34.185Z,866.00
2023-05-18T00:46:34.331Z,867.00
2023-05-18T00:47:34.210Z,865.00
2023-05-18T00:48:34.188Z,859.00
2023-05-18T00:49:34.225Z,855.00
2023-05-18T00:50:34.243Z,860.00
2023-05-18T00:51:34.256Z,872.00
2023-05-18T00:52:34.275Z,853.00
2023-05-18T00:53:34.288Z,848.00
2023-05-18T00:54:34.303Z,857.00
2023-05-18T00:55:34.442Z,859.00
2023-05-18T00:56:34.536Z,854.00
2023-05-18T00:57:34.348Z,860.00
2023-05-18T00:58:34.361Z,857.00
2023-05-18T00:59:34.380Z,845.00
2023-05-18T01:00:34.387Z,858.00
2023-05-18T01:01:34.788Z,859.00
2023-05-18T01:02:34.478Z,856.00
2023-05-18T01:03:34.520Z,866.00
2023-05-18T01:04:34.454Z,850.00
2023-05-18T01:05:34.484Z,852.00
2023-05-18T01:06:34.510Z,850.00
2023-05-18T01:07:34.531Z,866.00
2023-05-18T01:08:34.528Z,859.00
2023-05-18T01:09:34.549Z,850.00
2023-05-18T01:10:34.564Z,857.00
2023-05-18T01:11:34.629Z,856.00
2023-05-18T01:12:34.609Z,847.00
2023-05-18T01:13:34.628Z,843.00
2023-05-18T01:14:34.653Z,846.00
2023-05-18T01:15:34.669Z,850.00
2023-05-18T01:16:34.748Z,851.00
2023-05-18T01:17:34.788Z,855.00
2023-05-18T01:18:34.804Z,849.00
2023-05-18T01:19:34.780Z,849.00
2023-05-18T01:20:34.797Z,847.00
2023-05-18T01:21:34.815Z,851.00
2023-05-18T01:22:34.858Z,838.00
2023-05-18T01:23:34.870Z,849.00
2023-05-18T01:24:34.887Z,833.00
2023-05-18T01:25:34.917Z,837.00
2023-05-18T01:26:34.955Z,845.00
2023-05-18T01:27:34.965Z,840.00
2023-05-18T01:28:34.987Z,832.00
2023-05-18T01:29:35.014Z,849.00
2023-05-18T01:30:35.118Z,834.00
2023-05-18T01:31:35.242Z,852.00
2023-05-18T01:32:35.184Z,835.00
2023-05-18T01:33:35.141Z,842.00
2023-05-18T01:34:35.173Z,843.00
2023-05-18T01:35:35.167Z,835.00
2023-05-18T01:36:35.200Z,838.00
2023-05-18T01:37:35.224Z,838.00
2023-05-18T01:38:35.229Z,831.00
2023-05-18T01:39:35.288Z,850.00
2023-05-18T01:40:35.266Z,830.00
2023-05-18T01:41:35.292Z,850.00
2023-05-18T01:42:35.307Z,833.00
2023-05-18T01:43:35.323Z,832.00
2023-05-18T01:44:35.331Z,832.00
2023-05-18T01:45:35.360Z,819.00
2023-05-18T01:46:35.481Z,838.00
2023-05-18T01:47:35.451Z,837.00
2023-05-18T01:48:35.403Z,818.00
2023-05-18T01:49:35.435Z,832.00
2023-05-18T01:50:35.437Z,830.00
2023-05-18T01:51:35.455Z,817.00
2023-05-18T01:52:35.459Z,824.00
2023-05-18T01:53:35.484Z,834.00
2023-05-18T01:54:35.503Z,833.00
2023-05-18T01:55:35.516Z,814.00
2023-05-18T01:56:35.526Z,825.00
2023-05-18T01:57:35.564Z,829.00
2023-05-18T01:58:35.565Z,811.00
2023-05-18T01:59:35.581Z,812.00
2023-05-18T02:00:35.596Z,816.00
2023-05-18T02:01:35.667Z,829.00
2023-05-18T02:02:35.761Z,829.00
2023-05-18T02:03:35.711Z,821.00
2023-05-18T02:04:35.648Z,816.00
2023-05-18T02:05:35.678Z,812.00
2023-05-18T02:06:35.682Z,811.00
2023-05-18T02:07:35.709Z,807.00
2023-05-18T02:08:35.724Z,820.00
2023-05-18T02:09:35.743Z,826.00
2023-05-18T02:10:35.754Z,802.00
2023-05-18T02:11:35.775Z,817.00
2023-05-18T02:12:35.799Z,804.00
2023-05-18T02:13:35.814Z,812.00
2023-05-18T02:14:35.830Z,826.00
2023-05-18T02:15:35.843Z,811.00
2023-05-18T02:16:35.901Z,812.00
2023-05-18T02:17:35.894Z,809.00
2023-05-18T02:18:35.927Z,805.00
2023-05-18T02:19:35.908Z,815.00
2023-05-18T02:20:35.934Z,823.00
2023-05-18T02:21:35.960Z,795.00
2023-05-18T02:22:35.954Z,797.00
2023-05-18T02:23:35.970Z,796.00
2023-05-18T02:24:36.005Z,803.00
2023-05-18T02:25:36.022Z,797.00
2023-05-18T02:26:36.051Z,799.00
2023-05-18T02:27:36.050Z,805.00
2023-05-18T02:28:36.071Z,802.00
2023-05-18T02:29:36.092Z,789.00
2023-05-18T02:30:36.111Z,807.00
2023-05-18T02:31:36.211Z,804.00
2023-05-18T02:32:36.223Z,806.00
2023-05-18T02:33:36.171Z,811.00
2023-05-18T02:34:36.190Z,801.00
2023-05-18T02:35:36.220Z,808.00
2023-05-18T02:36:36.230Z,792.00
2023-05-18T02:37:36.241Z,807.00
2023-05-18T02:38:36.264Z,793.00
2023-05-18T02:39:36.276Z,805.00
2023-05-18T02:40:36.285Z,786.00
2023-05-18T02:41:36.325Z,793.00
2023-05-18T02:42:36.323Z,792.00
2023-05-18T02:43:36.331Z,794.00
2023-05-18T02:44:36.344Z,777.00
2023-05-18T02:45:36.450Z,792.00
2023-05-18T02:46:36.387Z,792.00
2023-05-18T02:47:36.415Z,789.00
2023-05-18T02:48:36.427Z,784.00
2023-05-18T02:49:36.441Z,789.00
2023-05-18T02:50:36.453Z,790.00
2023-05-18T02:51:36.485Z,787.00
2023-05-18T02:52:36.504Z,795.00
2023-05-18T02:53:36.542Z,779.00
2023-05-18T02:54:36.574Z,786.00
2023-05-18T02:55:36.596Z,789.00
2023-05-18T02:56:36.604Z,796.00
2023-05-18T02:57:36.633Z,784.00
2023-05-18T02:58:36.652Z,784.00
2023-05-18T02:59:36.661Z,784.00
2023-05-18T03:00:36.679Z,780.00
2023-05-18T03:01:36.762Z,789.00
2023-05-18T03:02:36.805Z,784.00
2023-05-18T03:03:36.772Z,777.00
2023-05-18T03:04:36.767Z,789.00
2023-05-18T03:05:36.780Z,786.00
2023-05-18T03:06:36.803Z,786.00
2023-05-18T03:07:36.832Z,780.00
2023-05-18T03:08:36.846Z,775.00
2023-05-18T03:09:36.863Z,790.00
2023-05-18T03:10:36.882Z,790.00
2023-05-18T03:11:36.905Z,768.00
2023-05-18T03:12:36.931Z,784.00
2023-05-18T03:13:36.951Z,763.00
2023-05-18T03:14:36.968Z,777.00
2023-05-18T03:15:36.989Z,785.00
2023-05-18T03:16:37.029Z,773.00
2023-05-18T03:17:37.069Z,781.00
2023-05-18T03:18:37.142Z,777.00
2023-05-18T03:19:37.065Z,764.00
2023-05-18T03:20:37.078Z,775.00
2023-05-18T03:21:37.108Z,785.00
2023-05-18T03:22:37.131Z,773.00
2023-05-18T03:23:37.139Z,781.00
2023-05-18T03:24:37.155Z,787.00
2023-05-18T03:25:37.185Z,771.00
2023-05-18T03:26:37.211Z,775.00
2023-05-18T03:27:37.225Z,779.00
2023-05-18T03:28:37.249Z,771.00
2023-05-18T03:29:37.266Z,770.00
2023-05-18T03:30:37.291Z,775.00
2023-05-18T03:31:37.345Z,765.00
2023-05-18T03:32:37.416Z,768.00
2023-05-18T03:33:37.354Z,755.00
2023-05-18T03:34:37.384Z,773.00
2023-05-18T03:35:37.399Z,771.00
2023-05-18T03:36:37.430Z,757.00
2023-05-18T03:37:37.456Z,764.00
2023-05-18T03:38:37.468Z,777.00
2023-05-18T03:39:37.499Z,767.00
2023-05-18T03:40:37.521Z,763.00
2023-05-18T03:41:37.538Z,764.00
2023-05-18T03:42:37.556Z,754.00
2023-05-18T03:43:37.571Z,764.00
2023-05-18T03:44:37.617Z,770.00
2023-05-18T03:45:37.607Z,752.00
2023-05-18T03:46:37.695Z,754.00
2023-05-18T03:47:37.700Z,757.00
2023-05-18T03:48:37.673Z,747.00
2023-05-18T03:49:37.689Z,748.00
2023-05-18T03:50:37.703Z,758.00
2023-05-18T03:51:37.717Z,748.00
2023-05-18T03:52:37.745Z,766.00
2023-05-18T03:53:37.760Z,747.00
2023-05-18T03:54:37.797Z,761.00
2023-05-18T03:55:37.794Z,765.00
2023-05-18T03:56:37.814Z,743.00
2023-05-18T03:57:37.839Z,765.00
2023-05-18T03:58:37.867Z,755.00
2023-05-18T03:59:37.897Z,769.00
2023-05-18T04:00:37.925Z,759.00
2023-05-18T04:01:37.984Z,742.00
2023-05-18T04:02:38.028Z,752.00
2023-05-18T04:03:38.069Z,751.00
2023-05-18T04:04:37.983Z,760.00
2023-05-18T04:05:37.999Z,747.00
2023-05-18T04:06:38.021Z,753.00
2023-05-18T04:07:38.045Z,752.00
2023-05-18T04:08:38.076Z,749.00
2023-05-18T04:09:38.122Z,758.00
2023-05-18T04:10:38.116Z,744.00
2023-05-18T04:11:38.136Z,750.00
2023-05-18T04:12:38.140Z,736.00
2023-05-18T04:13:38.169Z,753.00
2023-05-18T04:14:38.188Z,747.00
2023-05-18T04:15:38.218Z,734.00
2023-05-18T04:16:38.262Z,757.00
2023-05-18T04:17:38.262Z,739.00
2023-05-18T04:18:38.291Z,749.00
2023-05-18T04:19:38.332Z,732.00
2023-05-18T04:20:38.303Z,737.00
2023-05-18T04:21:38.310Z,744.00
2023-05-18T04:22:38.334Z,747.00
2023-05-18T04:23:38.347Z,744.00
2023-05-18T04:24:38.376Z,751.00
2023-05-18T04:25:38.383Z,730.00
2023-05-18T04:26:38.414Z,741.00
2023-05-18T04:27:38.436Z,729.00
2023-05-18T04:28:38.464Z,737.00
2023-05-18T04:29:38.482Z,721.00
2023-05-18T04:30:38.498Z,742.00
2023-05-18T04:31:38.561Z,728.00
2023-05-18T04:32:38.643Z,739.00
2023-05-18T04:33:38.584Z,728.00
2023-05-18T04:34:38.592Z,729.00
2023-05-18T04:35:38.617Z,728.00
2023-05-18T04:36:38.629Z,743.00
2023-05-18T04:37:38.653Z,742.00
2023-05-18T04:38:38.678Z,721.00
2023-05-18T04:39:38.704Z,728.00
2023-05-18T04:40:38.733Z,729.00
2023-05-18T04:41:38.758Z,712.00
2023-05-18T04:42:38.769Z,712.00
2023-05-18T04:43:38.816Z,737.00
2023-05-18T04:44:38.825Z,725.00
2023-05-18T04:45:38.894Z,726.00
2023-05-18T04:46:38.871Z,731.00
2023-05-18T04:47:38.926Z,731.00
2023-05-18T04:48:38.922Z,722.00
2023-05-18T04:49:38.953Z,720.00
2023-05-18T04:50:38.970Z,709.00
2023-05-18T04:51:38.990Z,729.00
2023-05-18T04:52:39.015Z,726.00
2023-05-18T04:53:39.078Z,723.00
2023-05-18T04:54:39.068Z,718.00
2023-05-18T04:55:39.087Z,710.00
2023-05-18T04:56:39.103Z,720.00
2023-05-18T04:57:39.124Z,722.00
2023-05-18T04:58:39.152Z,726.00
2023-05-18T04:59:39.172Z,721.00
2023-05-18T05:00:39.189Z,732.00
2023-05-18T05:01:39.255Z,729.00
2023-05-18T05:02:39.304Z,727.00
2023-05-18T05:03:39.321Z,725.00
2023-05-18T05:04:39.279Z,717.00
2023-05-18T05:05:39.296Z,701.00
2023-05-18T05:06:39.312Z,715.00
2023-05-18T05:07:39.332Z,708.00
2023-05-18T05:08:39.360Z,716.00
2023-05-18T05:09:39.384Z,721.00
2023-05-18T05:10:39.504Z,712.00
2023-05-18T05:11:39.423Z,716.00
2023-05-18T05:12:39.469Z,718.00
2023-05-18T05:13:39.468Z,706.00
2023-05-18T05:14:39.490Z,702.00
2023-05-18T05:15:39.543Z,712.00
2023-05-18T05:16:39.547Z,694.00
2023-05-18T05:17:39.578Z,714.00
2023-05-18T05:18:39.657Z,717.00
2023-05-18T05:19:39.603Z,722.00
2023-05-18T05:20:39.637Z,704.00
2023-05-18T05:21:39.659Z,719.00
2023-05-18T05:22:39.747Z,698.00
2023-05-18T05:23:39.689Z,707.00
2023-05-18T05:24:39.718Z,708.00
2023-05-18T05:25:39.762Z,712.00
2023-05-18T05:26:39.769Z,704.00
2023-05-18T05:27:39.787Z,697.00
2023-05-18T05:28:39.819Z,690.00
2023-05-18T05:29:39.853Z,698.00
2023-05-18T05:30:39.876Z,703.00
2023-05-18T05:31:39.918Z,698.00
2023-05-18T05:32:39.952Z,698.00
2023-05-18T05:33:39.941Z,696.00
2023-05-18T05:34:39.966Z,707.00
2023-05-18T05:35:39.988Z,705.00
2023-05-18T05:36:40.015Z,707.00
2023-05-18T05:37:40.059Z,710.00
2023-05-18T05:38:40.073Z,694.00
2023-05-18T05:39:40.114Z,685.00
2023-05-18T05:40:40.134Z,714.00
2023-05-18T05:41:40.156Z,700.00
2023-05-18T05:42:40.193Z,704.00
2023-05-18T05:43:40.227Z,701.00
2023-05-18T05:44:40.235Z,701.00
2023-05-18T05:45:40.244Z,696.00
2023-05-18T05:46:40.293Z,704.00
2023-05-18T05:47:40.340Z,689.00
2023-05-18T05:48:40.334Z,687.00
2023-05-18T05:49:40.339Z,696.00
2023-05-18T05:50:40.377Z,688.00
2023-05-18T05:51:40.389Z,684.00
2023-05-18T05:52:40.407Z,694.00
2023-05-18T05:53:40.424Z,699.00
2023-05-18T05:54:40.458Z,685.00
2023-05-18T05:55:40.476Z,677.00
2023-05-18T05:56:40.505Z,696.00
2023-05-18T05:57:40.519Z,698.00
2023-05-18T05:58:40.545Z,691.00
2023-05-18T05:59:40.568Z,685.00
2023-05-18T06:00:40.591Z,675.00
2023-05-18T06:01:40.644Z,692.00
2023-05-18T06:02:40.909Z,685.00
2023-05-18T06:03:40.712Z,692.00
2023-05-18T06:04:40.700Z,691.00
2023-05-18T06:05:40.709Z,680.00
2023-05-18T06:06:40.733Z,699.00
2023-05-18T06:07:40.754Z,667.00
2023-05-18T06:08:40.793Z,694.00
2023-05-18T06:09:40.808Z,685.00
2023-05-18T06:10:40.822Z,686.00
2023-05-18T06:11:40.847Z,678.00
2023-05-18T06:12:40.875Z,683.00
2023-05-18T06:13:40.892Z,680.00
2023-05-18T06:14:40.920Z,680.00
2023-05-18T06:15:40.946Z,683.00
2023-05-18T06:16:41.000Z,676.00
2023-05-18T06:17:41.023Z,689.00
2023-05-18T06:18:41.037Z,683.00
2023-05-18T06:19:41.024Z,680.00
2023-05-18T06:20:41.044Z,683.00
2023-05-18T06:21:41.075Z,682.00
2023-05-18T06:22:41.087Z,685.00
2023-05-18T06:23:42.144Z,678.00
2023-05-18T06:24:41.156Z,670.00
2023-05-18T06:25:41.180Z,666.00
2023-05-18T06:26:41.185Z,668.00
2023-05-18T06:27:41.203Z,678.00
2023-05-18T06:28:42.197Z,672.00
2023-05-18T06:29:41.255Z,682.00
2023-05-18T06:30:41.270Z,673.00
2023-05-18T06:31:41.354Z,665.00
2023-05-18T06:32:41.333Z,667.00
2023-05-18T06:33:41.332Z,662.00
2023-05-18T06:34:41.356Z,677.00
2023-05-18T06:35:41.393Z,668.00
2023-05-18T06:36:41.404Z,671.00
2023-05-18T06:37:41.438Z,662.00
2023-05-18T06:38:41.462Z,677.00
2023-05-18T06:39:41.482Z,663.00
2023-05-18T06:40:41.509Z,661.00
2023-05-18T06:41:41.526Z,680.00
2023-05-18T06:42:41.548Z,667.00
2023-05-18T06:43:41.565Z,670.00
2023-05-18T06:44:41.594Z,673.00
2023-05-18T06:45:41.640Z,665.00
2023-05-18T06:46:41.710Z,666.00
2023-05-18T06:47:41.690Z,660.00
2023-05-18T06:48:41.697Z,669.00
2023-05-18T06:49:41.718Z,669.00
2023-05-18T06:50:41.742Z,658.00
2023-05-18T06:51:41.761Z,666.00
2023-05-18T06:52:41.779Z,661.00
2023-05-18T06:53:41.801Z,664.00
2023-05-18T06:54:41.827Z,665.00
2023-05-18T06:55:41.852Z,662.00
2023-05-18T06:56:41.869Z,658.00
2023-05-18T06:57:41.911Z,662.00
2023-05-18T06:58:41.937Z,661.00
2023-05-18T06:59:41.944Z,657.00
2023-05-18T07:00:41.973Z,657.00
2023-05-18T07:01:42.098Z,657.00
2023-05-18T07:02:42.068Z,658.00
2023-05-18T07:03:42.099Z,660.00
2023-05-18T07:04:42.071Z,662.00
2023-05-18T07:05:42.096Z,658.00
2023-05-18T07:06:42.129Z,655.00
2023-05-18T07:07:42.157Z,654.00
2023-05-18T07:08:42.165Z,659.00
2023-05-18T07:09:42.184Z,659.00
2023-05-18T07:10:42.204Z,657.00
2023-05-18T07:11:42.233Z,658.00
2023-05-18T07:12:42.262Z,659.00
2023-05-18T07:13:42.283Z,655.00
2023-05-18T07:14:42.305Z,655.00
2023-05-18T07:15:42.369Z,653.00
2023-05-18T07:16:42.363Z,649.00
2023-05-18T07:17:42.443Z,659.00
2023-05-18T07:18:42.456Z,651.00
2023-05-18T07:19:42.427Z,654.00
2023-05-18T07:20:42.458Z,655.00
2023-05-18T07:21:42.474Z,655.00
2023-05-18T07:22:42.508Z,652.00
2023-05-18T07:23:42.521Z,653.00
2023-05-18T07:24:42.555Z,656.00
2023-05-18T07:25:42.560Z,652.00
2023-05-18T07:26:42.608Z,657.00
2023-05-18T07:27:42.616Z,651.00
2023-05-18T07:28:42.640Z,651.00
2023-05-18T07:29:42.683Z,650.00
2023-05-18T07:30:42.674Z,650.00
2023-05-18T07:31:42.764Z,653.00
2023-05-18T07:32:42.736Z,651.00
2023-05-18T07:33:42.731Z,650.00
2023-05-18T07:34:42.763Z,652.00
2023-05-18T07:35:42.769Z,649.00
2023-05-18T07:36:42.797Z,649.00
2023-05-18T07:37:42.898Z,645.00
2023-05-18T07:38:42.834Z,653.00
2023-05-18T07:39:42.874Z,651.00
2023-05-18T07:40:42.888Z,653.00
2023-05-18T07:41:42.912Z,650.00
2023-05-18T07:42:42.929Z,653.00
2023-05-18T07:43:42.941Z,653.00
2023-05-18T07:44:42.977Z,654.00
2023-05-18T07:45:42.986Z,650.00
2023-05-18T07:46:43.019Z,652.00
2023-05-18T07:47:43.115Z,655.00
2023-05-18T07:48:43.059Z,648.00
2023-05-18T07:49:43.116Z,644.00
2023-05-18T07:50:43.100Z,650.00
2023-05-18T07:51:43.119Z,646.00
2023-05-18T07:52:43.138Z,644.00
2023-05-18T07:53:43.162Z,646.00
2023-05-18T07:54:43.191Z,644.00
2023-05-18T07:55:43.224Z,645.00
2023-05-18T07:56:43.228Z,649.00
2023-05-18T07:57:43.257Z,642.00
2023-05-18T07:58:43.289Z,642.00
2023-05-18T07:59:43.314Z,646.00
2023-05-18T08:00:43.337Z,639.00
2023-05-18T08:01:43.381Z,651.00
2023-05-18T08:02:43.502Z,640.00
2023-05-18T08:03:43.465Z,647.00
2023-05-18T08:04:43.508Z,643.00
2023-05-18T08:05:43.462Z,649.00
2023-05-18T08:06:43.482Z,649.00
2023-05-18T08:07:43.508Z,646.00
2023-05-18T08:08:43.536Z,639.00
2023-05-18T08:09:43.564Z,644.00
2023-05-18T08:10:43.609Z,644.00
2023-05-18T08:11:43.617Z,644.00
2023-05-18T08:12:43.649Z,646.00
2023-05-18T08:13:43.671Z,648.00
2023-05-18T08:14:43.691Z,645.00
2023-05-18T08:15:43.727Z,637.00
2023-05-18T08:16:43.779Z,648.00
2023-05-18T08:17:43.841Z,643.00
2023-05-18T08:18:43.815Z,645.00
2023-05-18T08:19:43.832Z,636.00
2023-05-18T08:20:43.889Z,642.00
2023-05-18T08:21:43.892Z,641.00
2023-05-18T08:22:43.929Z,645.00
2023-05-18T08:23:43.947Z,642.00
2023-05-18T08:24:43.979Z,640.00
2023-05-18T08:25:44.012Z,639.00
2023-05-18T08:26:44.040Z,639.00
2023-05-18T08:27:44.071Z,642.00
2023-05-18T08:28:44.101Z,637.00
2023-05-18T08:29:44.154Z,640.00
2023-05-18T08:30:44.154Z,637.00
2023-05-18T08:31:44.669Z,633.00
2023-05-18T08:32:44.251Z,639.00
2023-05-18T08:33:44.239Z,642.00
2023-05-18T08:34:44.275Z,634.00
2023-05-18T08:35:44.290Z,633.00
2023-05-18T08:36:44.402Z,633.00
2023-05-18T08:37:44.342Z,636.00
2023-05-18T08:38:44.368Z,632.00
2023-05-18T08:39:44.398Z,635.00
2023-05-18T08:40:44.428Z,636.00
2023-05-18T08:41:44.454Z,636.00
2023-05-18T08:42:49.872Z,636.00
2023-05-18T08:43:45.536Z,636.00
2023-05-18T08:44:44.544Z,637.00
2023-05-18T08:45:44.542Z,637.00
2023-05-18T08:46:44.558Z,637.00
2023-05-18T08:47:44.650Z,635.00
2023-05-18T08:48:44.683Z,638.00
2023-05-18T08:49:44.610Z,637.00
2023-05-18T08:50:44.613Z,633.00
2023-05-18T08:51:44.634Z,635.00
2023-05-18T08:52:44.686Z,626.00
2023-05-18T08:53:44.656Z,632.00
2023-05-18T08:54:44.673Z,631.00
2023-05-18T08:55:44.683Z,630.00
2023-05-18T08:56:44.711Z,635.00
2023-05-18T08:57:44.707Z,635.00
2023-05-18T08:58:44.727Z,629.00
2023-05-18T08:59:44.748Z,630.00
2023-05-18T09:00:44.761Z,628.00
2023-05-18T09:01:44.840Z,622.00
2023-05-18T09:02:44.826Z,631.00
2023-05-18T09:03:44.830Z,636.00
2023-05-18T09:04:44.878Z,627.00
2023-05-18T09:05:44.853Z,630.00
2023-05-18T09:06:44.873Z,622.00
2023-05-18T09:07:44.872Z,630.00
2023-05-18T09:08:44.905Z,624.00
2023-05-18T09:09:44.912Z,631.00
2023-05-18T09:10:44.936Z,628.00
2023-05-18T09:11:44.947Z,627.00
2023-05-18T09:12:44.957Z,625.00
2023-05-18T09:13:44.977Z,621.00
2023-05-18T09:14:44.994Z,626.00
2023-05-18T09:15:45.037Z,625.00
2023-05-18T09:16:45.049Z,616.00
2023-05-18T09:17:45.097Z,628.00
2023-05-18T09:18:45.102Z,625.00
2023-05-18T09:19:45.086Z,626.00
2023-05-18T09:20:45.113Z,623.00
2023-05-18T09:21:45.128Z,624.00
2023-05-18T09:22:45.163Z,621.00
2023-05-18T09:23:45.160Z,627.00
2023-05-18T09:24:45.187Z,623.00
2023-05-18T09:25:45.205Z,624.00
2023-05-18T09:26:45.222Z,622.00
2023-05-18T09:27:45.235Z,627.00
2023-05-18T09:28:45.260Z,627.00
2023-05-18T09:29:45.290Z,626.00
2023-05-18T09:30:45.306Z,629.00
2023-05-18T09:31:45.368Z,626.00
2023-05-18T09:32:45.372Z,622.00
2023-05-18T09:33:45.372Z,615.00
2023-05-18T09:34:45.479Z,621.00
2023-05-18T09:35:45.391Z,624.00
2023-05-18T09:36:45.410Z,626.00
2023-05-18T09:37:45.445Z,625.00
2023-05-18T09:38:45.482Z,620.00
2023-05-18T09:39:45.491Z,623.00
2023-05-18T09:40:45.529Z,624.00
2023-05-18T09:41:45.563Z,619.00
2023-05-18T09:42:45.594Z,618.00
2023-05-18T09:43:45.619Z,618.00
2023-05-18T09:44:45.636Z,623.00
2023-05-18T09:45:45.670Z,624.00
2023-05-18T09:46:45.727Z,624.00
2023-05-18T09:47:45.749Z,619.00
2023-05-18T09:48:45.751Z,620.00
2023-05-18T09:49:45.780Z,614.00
2023-05-18T09:50:45.804Z,621.00
2023-05-18T09:51:45.837Z,625.00
2023-05-18T09:52:45.880Z,616.00
2023-05-18T09:53:45.884Z,622.00
2023-05-18T09:54:45.920Z,621.00
2023-05-18T09:55:45.965Z,622.00
2023-05-18T09:56:48.189Z,621.00
2023-05-18T09:57:47.007Z,621.00
2023-05-18T09:58:46.022Z,622.00
2023-05-18T09:59:46.029Z,623.00
2023-05-18T10:00:46.075Z,623.00
2023-05-18T10:01:46.065Z,617.00
2023-05-18T10:02:46.091Z,620.00
2023-05-18T10:03:46.126Z,617.00
2023-05-18T10:04:46.183Z,627.00
2023-05-18T10:05:46.122Z,622.00
2023-05-18T10:06:46.138Z,622.00
2023-05-18T10:07:46.154Z,623.00
2023-05-18T10:08:46.167Z,623.00
2023-05-18T10:09:46.188Z,620.00
2023-05-18T10:10:46.220Z,620.00
2023-05-18T10:11:46.228Z,618.00
2023-05-18T10:12:46.240Z,616.00
2023-05-18T10:13:46.259Z,620.00
2023-05-18T10:14:46.317Z,621.00
2023-05-18T10:15:46.310Z,615.00
2023-05-18T10:16:46.409Z,622.00
2023-05-18T10:17:46.466Z,626.00
2023-05-18T10:18:46.470Z,622.00
2023-05-18T10:19:46.427Z,614.00
2023-05-18T10:20:46.393Z,617.00
2023-05-18T10:21:46.400Z,618.00
2023-05-18T10:22:46.433Z,614.00
2023-05-18T10:23:46.428Z,617.00
2023-05-18T10:24:46.436Z,617.00
2023-05-18T10:25:46.459Z,616.00
2023-05-18T10:26:46.481Z,616.00
2023-05-18T10:27:46.496Z,617.00
2023-05-18T10:28:46.510Z,617.00
2023-05-18T10:29:46.540Z,615.00
2023-05-18T10:30:46.587Z,614.00
2023-05-18T10:31:46.549Z,619.00
2023-05-18T10:32:46.624Z,615.00
2023-05-18T10:33:46.587Z,617.00
2023-05-18T10:34:46.624Z,613.00
2023-05-18T10:35:46.650Z,607.00
2023-05-18T10:36:46.669Z,610.00
2023-05-18T10:37:46.701Z,612.00
2023-05-18T10:38:46.730Z,619.00
2023-05-18T10:39:46.742Z,617.00
2023-05-18T10:40:46.774Z,614.00
2023-05-18T10:41:46.792Z,611.00
2023-05-18T10:42:46.810Z,617.00
2023-05-18T10:43:46.826Z,615.00
2023-05-18T10:44:47.007Z,616.00
2023-05-18T10:45:46.843Z,618.00
2023-05-18T10:46:46.997Z,613.00
2023-05-18T10:47:46.998Z,615.00
2023-05-18T10:48:48.001Z,615.00
2023-05-18T10:49:46.922Z,612.00
2023-05-18T10:50:46.945Z,615.00
2023-05-18T10:51:46.961Z,612.00
2023-05-18T10:52:46.982Z,609.00
2023-05-18T10:53:47.003Z,616.00
2023-05-18T10:54:47.003Z,610.00
2023-05-18T10:55:47.039Z,614.00
2023-05-18T10:56:47.070Z,613.00
2023-05-18T10:57:47.072Z,615.00
2023-05-18T10:58:47.088Z,618.00
2023-05-18T10:59:48.407Z,611.00
2023-05-18T11:00:47.129Z,608.00
2023-05-18T11:01:47.184Z,613.00
2023-05-18T11:02:47.188Z,608.00
2023-05-18T11:03:47.171Z,608.00
2023-05-18T11:04:47.266Z,610.00
2023-05-18T11:05:47.214Z,610.00
2023-05-18T11:06:47.230Z,615.00
2023-05-18T11:07:47.245Z,610.00
2023-05-18T11:08:47.269Z,611.00
2023-05-18T11:09:47.291Z,610.00
2023-05-18T11:10:47.419Z,607.00
2023-05-18T11:11:47.320Z,612.00
2023-05-18T11:12:47.343Z,614.00
2023-05-18T11:13:47.347Z,611.00
2023-05-18T11:14:47.356Z,608.00
2023-05-18T11:15:47.388Z,607.00
2023-05-18T11:16:47.551Z,608.00
2023-05-18T11:17:47.512Z,613.00
2023-05-18T11:18:47.460Z,605.00
2023-05-18T11:19:47.484Z,608.00
2023-05-18T11:20:47.491Z,606.00
2023-05-18T11:21:47.525Z,606.00
2023-05-18T11:22:47.577Z,609.00
2023-05-18T11:23:47.571Z,608.00
2023-05-18T11:24:47.590Z,606.00
2023-05-18T11:25:47.606Z,612.00
2023-05-18T11:26:47.641Z,610.00
2023-05-18T11:27:47.665Z,606.00
2023-05-18T11:28:49.531Z,600.00
2023-05-18T11:29:47.776Z,609.00
2023-05-18T11:30:47.720Z,604.00
2023-05-18T11:31:47.819Z,611.00
2023-05-18T11:32:47.840Z,607.00
2023-05-18T11:33:47.856Z,605.00
2023-05-18T11:34:47.806Z,601.00
2023-05-18T11:35:47.822Z,605.00
2023-05-18T11:36:47.839Z,604.00
2023-05-18T11:37:47.866Z,608.00
2023-05-18T11:38:47.895Z,598.00
2023-05-18T11:39:58.245Z,602.00
2023-05-18T11:40:48.958Z,603.00
2023-05-18T11:41:47.931Z,603.00
2023-05-18T11:42:47.941Z,603.00
2023-05-18T11:43:47.960Z,608.00
2023-05-18T11:44:47.979Z,610.00
2023-05-18T11:45:47.992Z,611.00
2023-05-18T11:46:48.009Z,602.00
2023-05-18T11:47:48.067Z,602.00
2023-05-18T11:48:48.132Z,609.00
2023-05-18T11:49:48.059Z,607.00
2023-05-18T11:50:48.082Z,606.00
2023-05-18T11:51:48.075Z,601.00
2023-05-18T11:52:48.183Z,606.00
2023-05-18T11:53:48.115Z,602.00
2023-05-18T11:54:48.152Z,600.00
2023-05-18T11:55:48.154Z,602.00
2023-05-18T11:56:48.162Z,602.00
2023-05-18T11:57:48.177Z,601.00
2023-05-18T11:58:48.184Z,597.00
2023-05-18T11:59:48.206Z,603.00
2023-05-18T12:00:48.233Z,598.00
2023-05-18T12:01:48.267Z,601.00
2023-05-18T12:02:48.410Z,600.00
2023-05-18T12:03:48.731Z,604.00
2023-05-18T12:04:48.386Z,601.00
2023-05-18T12:05:48.268Z,597.00
2023-05-18T12:06:48.274Z,601.00
2023-05-18T12:07:48.290Z,596.00
2023-05-18T12:08:48.310Z,601.00
2023-05-18T12:09:48.343Z,598.00
2023-05-18T12:10:48.344Z,606.00
2023-05-18T12:11:48.351Z,596.00
2023-05-18T12:12:48.377Z,603.00
2023-05-18T12:13:48.388Z,597.00
2023-05-18T12:14:48.403Z,601.00
2023-05-18T12:15:48.424Z,600.00
2023-05-18T12:16:48.567Z,599.00
2023-05-18T12:17:48.502Z,596.00
2023-05-18T12:18:48.519Z,596.00
2023-05-18T12:19:48.495Z,594.00
2023-05-18T12:20:48.521Z,599.00
2023-05-18T12:21:48.501Z,595.00
2023-05-18T12:22:48.517Z,597.00
2023-05-18T12:23:48.527Z,597.00
2023-05-18T12:24:48.544Z,603.00
2023-05-18T12:25:48.558Z,602.00
2023-05-18T12:26:48.572Z,598.00
2023-05-18T12:27:48.645Z,599.00
2023-05-18T12:28:48.605Z,599.00
2023-05-18T12:29:48.635Z,603.00